createdAt,value
2023-02-19T00:01:43.532Z,71.00
2023-02-19T00:04:17.851Z,75.13
2023-02-19T00:06:46.278Z,82.03
2023-02-19T00:09:15.453Z,78.60
2023-02-19T00:11:44.423Z,71.28
2023-02-19T00:14:15.875Z,70.60
2023-02-19T00:16:42.988Z,72.60
2023-02-19T00:19:14.311Z,76.57
2023-02-19T00:21:41.611Z,82.72
2023-02-19T00:24:11.967Z,81.47
2023-02-19T00:26:40.803Z,79.55
2023-02-19T00:29:09.537Z,79.00
2023-02-19T00:31:36.760Z,71.63
2023-02-19T00:34:05.981Z,73.30
2023-02-19T00:36:36.095Z,73.10
2023-02-19T00:39:04.688Z,73.03
2023-02-19T00:41:32.677Z,78.50
2023-02-19T00:44:02.129Z,76.18
2023-02-19T00:46:33.327Z,71.90
2023-02-19T00:49:01.287Z,81.50
2023-02-19T00:51:33.523Z,66.03
2023-02-19T00:54:00.727Z,67.50
2023-02-19T00:56:28.218Z,85.47
2023-02-19T00:58:56.834Z,78.72
2023-02-19T01:01:24.083Z,71.05
2023-02-19T01:03:52.195Z,71.60
2023-02-19T01:06:20.983Z,81.47
2023-02-19T01:08:48.803Z,70.47
2023-02-19T01:11:16.532Z,75.18
2023-02-19T01:13:43.952Z,76.60
2023-02-19T01:16:18.072Z,78.93
2023-02-19T01:18:46.156Z,82.70
2023-02-19T01:21:16.184Z,76.82
2023-02-19T01:23:44.173Z,81.72
2023-02-19T01:26:15.127Z,75.63
2023-02-19T01:28:42.761Z,79.85
2023-02-19T01:31:13.972Z,78.80
2023-02-19T01:33:45.283Z,89.20
2023-02-19T01:36:12.809Z,93.22
2023-02-19T01:38:40.439Z,89.65
2023-02-19T01:41:10.536Z,85.32
2023-02-19T01:44:07.944Z,86.72
2023-02-19T01:46:41.367Z,74.95
2023-02-19T01:49:14.749Z,69.78
2023-02-19T01:51:47.452Z,80.93
2023-02-19T01:54:17.333Z,78.53
2023-02-19T01:56:48.765Z,77.35
2023-02-19T01:59:18.101Z,80.05
2023-02-19T02:01:45.409Z,73.15
2023-02-19T02:04:14.903Z,79.72
2023-02-19T02:06:52.208Z,74.18
2023-02-19T02:09:39.294Z,71.57
2023-02-19T02:12:07.145Z,67.85
2023-02-19T02:14:37.315Z,68.15
2023-02-19T02:17:36.732Z,65.13
2023-02-19T02:20:44.309Z,63.50
2023-02-19T02:23:20.256Z,69.55
2023-02-19T02:26:08.843Z,61.38
2023-02-19T02:28:42.399Z,69.82
2023-02-19T02:31:25.825Z,62.28
2023-02-19T02:34:07.637Z,63.78
2023-02-19T02:36:39.183Z,67.25
2023-02-19T02:39:11.616Z,72.00
2023-02-19T02:42:14.596Z,73.03
2023-02-19T02:45:04.688Z,78.50
2023-02-19T02:47:41.214Z,62.20
2023-02-19T02:50:26.468Z,63.13
2023-02-19T02:53:18.775Z,61.05
2023-02-19T02:55:49.688Z,62.05
2023-02-19T02:58:17.923Z,64.50
2023-02-19T03:01:10.511Z,66.68
2023-02-19T03:03:39.931Z,55.60
2023-02-19T03:06:11.825Z,63.50
2023-02-19T03:09:00.010Z,64.00
2023-02-19T03:11:47.127Z,63.05
2023-02-19T03:14:38.929Z,60.13
2023-02-19T03:17:34.174Z,57.72
2023-02-19T03:20:07.634Z,48.45
2023-02-19T03:22:37.853Z,52.67
2023-02-19T03:25:38.280Z,58.72
2023-02-19T03:28:08.748Z,51.28
2023-02-19T03:30:40.456Z,45.45
2023-02-19T03:33:14.119Z,47.85
2023-02-19T03:35:47.457Z,48.27
2023-02-19T03:38:26.698Z,47.72
2023-02-19T03:40:57.016Z,49.42
2023-02-19T03:43:38.643Z,48.40
2023-02-19T03:46:13.905Z,52.13
2023-02-19T03:48:50.961Z,45.63
2023-02-19T03:51:44.006Z,47.50
2023-02-19T03:54:35.231Z,50.63
2023-02-19T03:57:11.759Z,50.88
2023-02-19T03:59:54.020Z,49.38
2023-02-19T04:02:37.791Z,48.58
2023-02-19T04:07:46.513Z,44.75
2023-02-19T04:12:50.722Z,39.15
2023-02-19T04:15:22.840Z,49.58
2023-02-19T04:18:00.546Z,49.13
2023-02-19T04:20:30.889Z,47.45
2023-02-19T04:22:58.588Z,42.25
2023-02-19T04:25:27.800Z,53.33
2023-02-19T04:27:55.193Z,39.50
2023-02-19T04:30:22.644Z,42.95
2023-02-19T04:32:49.725Z,42.20
2023-02-19T04:35:16.893Z,40.80
2023-02-19T04:37:43.969Z,42.13
2023-02-19T04:40:11.344Z,41.53
2023-02-19T04:42:38.408Z,38.88
2023-02-19T04:45:05.852Z,41.55
2023-02-19T04:47:33.070Z,33.08
2023-02-19T04:50:00.159Z,39.97
2023-02-19T04:52:27.262Z,36.55
2023-02-19T04:54:54.388Z,43.00
2023-02-19T04:57:21.489Z,35.22
2023-02-19T04:59:48.576Z,34.10
2023-02-19T05:02:15.740Z,32.53
2023-02-19T05:04:42.905Z,33.22
2023-02-19T05:07:10.330Z,33.15
2023-02-19T05:09:37.456Z,32.92
2023-02-19T05:12:04.641Z,34.88
2023-02-19T05:14:31.729Z,33.83
2023-02-19T05:16:58.818Z,35.95
2023-02-19T05:19:25.861Z,29.55
2023-02-19T05:21:52.952Z,33.80
2023-02-19T05:24:20.113Z,33.45
2023-02-19T05:26:48.216Z,33.55
2023-02-19T05:29:15.451Z,37.17
2023-02-19T05:31:42.610Z,32.00
2023-02-19T05:34:09.776Z,30.40
2023-02-19T05:36:37.532Z,35.55
2023-02-19T05:39:06.238Z,30.85
2023-02-19T05:41:33.369Z,33.45
2023-02-19T05:44:00.645Z,31.05
2023-02-19T05:46:32.573Z,31.50
2023-02-19T05:48:59.750Z,29.48
2023-02-19T05:51:27.583Z,27.30
2023-02-19T05:53:56.324Z,25.83
2023-02-19T05:56:33.977Z,30.92
2023-02-19T05:59:03.994Z,31.63
2023-02-19T06:01:31.227Z,26.45
2023-02-19T06:03:58.494Z,25.92
2023-02-19T06:06:27.278Z,26.67
2023-02-19T06:08:55.142Z,27.95
2023-02-19T06:11:23.325Z,29.85
2023-02-19T06:13:50.768Z,25.60
2023-02-19T06:16:18.787Z,26.25
2023-02-19T06:18:46.166Z,28.17
2023-02-19T06:21:15.088Z,27.70
2023-02-19T06:23:43.232Z,28.63
2023-02-19T06:26:19.837Z,29.02
2023-02-19T06:28:49.234Z,29.33
2023-02-19T06:31:17.113Z,22.17
2023-02-19T06:33:44.903Z,28.95
2023-02-19T06:36:17.819Z,29.67
2023-02-19T06:38:45.208Z,25.67
2023-02-19T06:41:13.439Z,26.65
2023-02-19T06:43:40.912Z,27.10
2023-02-19T06:46:08.184Z,27.60
2023-02-19T06:48:35.614Z,27.73
2023-02-19T06:51:03.119Z,25.60
2023-02-19T06:53:30.381Z,26.23
2023-02-19T06:56:03.509Z,24.02
2023-02-19T06:58:31.439Z,25.63
2023-02-19T07:00:58.973Z,23.42
2023-02-19T07:03:26.522Z,24.20
2023-02-19T07:05:53.778Z,21.13
2023-02-19T07:08:21.060Z,25.15
2023-02-19T07:10:56.541Z,24.83
2023-02-19T07:13:25.183Z,25.45
2023-02-19T07:15:57.631Z,28.63
2023-02-19T07:18:24.815Z,22.40
2023-02-19T07:20:51.890Z,25.67
2023-02-19T07:23:18.973Z,27.42
2023-02-19T07:25:46.066Z,22.85
2023-02-19T07:28:13.152Z,24.15
2023-02-19T07:30:40.275Z,26.10
2023-02-19T07:33:10.112Z,26.27
2023-02-19T07:35:37.596Z,23.40
2023-02-19T07:38:04.668Z,26.35
2023-02-19T07:40:31.732Z,25.48
2023-02-19T07:43:00.146Z,28.77
2023-02-19T07:45:27.305Z,23.42
2023-02-19T07:47:54.445Z,25.00
2023-02-19T07:50:21.608Z,23.58
2023-02-19T07:52:48.676Z,22.58
2023-02-19T07:55:15.803Z,20.80
2023-02-19T07:57:42.909Z,25.42
2023-02-19T08:00:10.729Z,22.17
2023-02-19T08:02:58.934Z,28.08
2023-02-19T08:05:30.669Z,22.27
2023-02-19T08:07:59.288Z,24.83
2023-02-19T08:10:45.943Z,22.33
2023-02-19T08:13:25.188Z,22.13
2023-02-19T08:16:18.381Z,27.90
2023-02-19T08:18:49.436Z,23.17
2023-02-19T08:21:20.454Z,23.70
2023-02-19T08:23:49.935Z,21.85
2023-02-19T08:26:18.256Z,23.13
2023-02-19T08:28:45.568Z,24.42
2023-02-19T08:31:13.082Z,21.35
2023-02-19T08:33:40.788Z,26.02
2023-02-19T08:36:09.372Z,29.58
2023-02-19T08:38:36.724Z,26.25
2023-02-19T08:41:09.707Z,25.05
2023-02-19T08:43:37.157Z,25.80
2023-02-19T08:46:05.090Z,25.70
2023-02-19T08:48:32.715Z,27.83
2023-02-19T08:51:03.860Z,29.30
2023-02-19T08:53:32.485Z,30.08
2023-02-19T08:56:06.872Z,30.27
2023-02-19T08:58:34.073Z,27.15
2023-02-19T09:01:01.217Z,30.30
2023-02-19T09:03:28.395Z,27.88
2023-02-19T09:05:55.476Z,27.73
2023-02-19T09:08:22.551Z,32.20
2023-02-19T09:11:04.495Z,27.92
2023-02-19T09:13:31.651Z,30.10
2023-02-19T09:15:58.832Z,29.52
2023-02-19T09:18:26.339Z,27.30
2023-02-19T09:20:53.468Z,26.33
2023-02-19T09:23:20.594Z,22.85
2023-02-19T09:25:47.653Z,25.30
2023-02-19T09:28:15.546Z,24.38
2023-02-19T09:30:42.668Z,26.45
2023-02-19T09:33:09.768Z,23.50
2023-02-19T09:35:39.695Z,18.98
2023-02-19T09:38:07.120Z,23.45
2023-02-19T09:40:35.650Z,23.83
2023-02-19T09:43:09.757Z,24.20
2023-02-19T09:45:38.105Z,23.33
2023-02-19T09:48:06.369Z,18.30
2023-02-19T09:50:40.864Z,19.55
2023-02-19T09:53:16.952Z,21.30
2023-02-19T09:55:44.967Z,20.92
2023-02-19T09:58:25.698Z,21.17
2023-02-19T10:00:55.256Z,18.63
2023-02-19T10:03:39.125Z,17.48
2023-02-19T10:08:40.400Z,21.20
2023-02-19T10:11:11.774Z,20.17
2023-02-19T10:13:46.701Z,21.15
2023-02-19T10:16:17.516Z,18.63
2023-02-19T10:18:46.405Z,20.40
2023-02-19T10:21:23.083Z,17.00
2023-02-19T10:23:55.567Z,21.33
2023-02-19T10:26:24.153Z,19.80
2023-02-19T10:28:51.410Z,17.17
2023-02-19T10:31:21.963Z,16.88
2023-02-19T10:33:58.076Z,18.58
2023-02-19T10:36:44.869Z,16.17
2023-02-19T10:39:30.459Z,16.85
2023-02-19T10:41:58.721Z,17.90
2023-02-19T10:44:29.072Z,18.80
2023-02-19T10:46:59.227Z,17.05
2023-02-19T10:49:30.121Z,18.30
2023-02-19T10:52:02.436Z,17.95
2023-02-19T10:54:32.520Z,16.55
2023-02-19T10:57:14.738Z,19.75
2023-02-19T11:00:01.120Z,17.52
2023-02-19T11:02:30.182Z,17.55
2023-02-19T11:05:09.174Z,17.15
2023-02-19T11:07:37.537Z,16.27
2023-02-19T11:10:07.076Z,19.90
2023-02-19T11:12:35.048Z,17.45
2023-02-19T11:15:28.712Z,15.60
2023-02-19T11:18:11.949Z,16.02
2023-02-19T11:20:54.581Z,18.45
2023-02-19T11:23:37.462Z,18.25
2023-02-19T11:26:18.724Z,16.97
2023-02-19T11:28:45.801Z,15.38
2023-02-19T11:31:20.277Z,16.15
2023-02-19T11:34:02.542Z,18.98
2023-02-19T11:36:31.055Z,12.80
2023-02-19T11:39:02.684Z,16.05
2023-02-19T11:42:07.770Z,13.15
2023-02-19T11:44:58.074Z,13.68
2023-02-19T11:47:55.798Z,15.70
2023-02-19T11:50:44.477Z,15.43
2023-02-19T11:53:28.950Z,17.05
2023-02-19T11:56:14.678Z,17.38
2023-02-19T11:58:53.581Z,15.98
2023-02-19T12:01:29.773Z,12.93
2023-02-19T12:04:26.877Z,17.10
2023-02-19T12:07:27.793Z,15.02
2023-02-19T12:10:00.660Z,13.00
2023-02-19T12:12:37.856Z,15.95
2023-02-19T12:15:25.273Z,11.50
2023-02-19T12:18:04.578Z,12.02
2023-02-19T12:20:50.157Z,12.35
2023-02-19T12:23:49.349Z,12.30
2023-02-19T12:26:16.363Z,12.15
2023-02-19T12:29:23.035Z,13.55
2023-02-19T12:31:58.801Z,16.67
2023-02-19T12:34:31.582Z,12.30
2023-02-19T12:37:05.413Z,12.07
2023-02-19T12:40:05.330Z,13.35
2023-02-19T12:43:08.944Z,14.40
2023-02-19T12:45:42.705Z,12.07
2023-02-19T12:48:27.985Z,16.60
2023-02-19T12:51:05.153Z,14.13
2023-02-19T12:53:35.250Z,12.68
2023-02-19T12:56:10.589Z,11.18
2023-02-19T12:58:45.689Z,10.52
2023-02-19T13:01:23.233Z,12.02
2023-02-19T13:04:01.991Z,13.32
2023-02-19T13:06:41.654Z,13.38
2023-02-19T13:09:23.597Z,14.02
2023-02-19T13:12:01.758Z,12.43
2023-02-19T13:14:28.778Z,18.45
2023-02-19T13:17:04.210Z,15.48
2023-02-19T13:19:32.844Z,10.30
2023-02-19T13:22:34.713Z,13.02
2023-02-19T13:25:03.444Z,11.90
2023-02-19T13:27:42.334Z,12.57
2023-02-19T13:30:33.396Z,10.63
2023-02-19T13:33:15.805Z,9.70
2023-02-19T13:36:12.581Z,16.08
2023-02-19T13:38:43.476Z,11.15
2023-02-19T13:41:31.659Z,15.10
2023-02-19T13:44:16.518Z,11.05
2023-02-19T13:46:46.177Z,11.23
2023-02-19T13:49:42.493Z,11.35
2023-02-19T13:52:28.069Z,10.95
2023-02-19T13:55:32.659Z,10.57
2023-02-19T13:58:33.747Z,11.70
2023-02-19T14:01:03.656Z,11.50
2023-02-19T14:03:54.618Z,12.63
2023-02-19T14:06:21.824Z,14.35
2023-02-19T14:08:56.622Z,13.02
2023-02-19T14:11:41.877Z,16.25
2023-02-19T14:14:37.666Z,12.93
2023-02-19T14:17:24.420Z,12.80
2023-02-19T14:20:00.300Z,10.75
2023-02-19T14:22:52.427Z,12.77
2023-02-19T14:25:31.778Z,11.80
2023-02-19T14:28:11.293Z,10.00
2023-02-19T14:31:00.994Z,10.82
2023-02-19T14:34:03.144Z,10.40
2023-02-19T14:36:48.858Z,11.38
2023-02-19T14:39:26.044Z,14.45
2023-02-19T14:41:57.120Z,11.38
2023-02-19T14:44:30.078Z,11.05
2023-02-19T14:47:05.432Z,11.27
2023-02-19T14:49:35.201Z,10.55
2023-02-19T14:52:10.560Z,11.02
2023-02-19T14:54:50.753Z,11.40
2023-02-19T14:57:22.050Z,10.70
2023-02-19T14:59:58.616Z,11.38
2023-02-19T15:02:27.523Z,13.02
2023-02-19T15:04:55.399Z,12.48
2023-02-19T15:07:27.560Z,11.15
2023-02-19T15:09:58.644Z,11.60
2023-02-19T15:12:31.718Z,12.23
2023-02-19T15:15:03.000Z,11.20
2023-02-19T15:17:33.604Z,11.73
2023-02-19T15:20:05.207Z,13.45
2023-02-19T15:22:32.697Z,12.65
2023-02-19T15:25:05.095Z,9.05
2023-02-19T15:27:34.233Z,11.65
2023-02-19T15:30:01.353Z,10.73
2023-02-19T15:32:28.736Z,11.05
2023-02-19T15:35:01.422Z,11.60
2023-02-19T15:37:35.188Z,13.75
2023-02-19T15:40:07.531Z,11.77
2023-02-19T15:42:37.141Z,10.25
2023-02-19T15:45:17.639Z,14.50
2023-02-19T15:48:04.478Z,13.07
2023-02-19T15:50:39.190Z,15.15
2023-02-19T15:53:29.548Z,12.38
2023-02-19T15:56:09.241Z,13.32
2023-02-19T15:58:46.989Z,11.25
2023-02-19T16:01:40.395Z,15.52
2023-02-19T16:04:14.536Z,12.40
2023-02-19T16:07:01.769Z,11.05
2023-02-19T16:09:29.060Z,12.23
2023-02-19T16:11:59.405Z,11.65
2023-02-19T16:14:32.227Z,14.60
2023-02-19T16:17:11.371Z,14.43
2023-02-19T16:19:58.553Z,12.95
2023-02-19T16:22:29.218Z,13.32
2023-02-19T16:25:00.488Z,12.38
2023-02-19T16:27:31.138Z,17.17
2023-02-19T16:30:01.076Z,15.10
2023-02-19T16:32:28.423Z,18.27
2023-02-19T16:34:55.661Z,12.52
2023-02-19T16:37:33.097Z,15.77
2023-02-19T16:40:09.052Z,16.55
2023-02-19T16:42:56.924Z,15.45
2023-02-19T16:45:27.342Z,14.50
2023-02-19T16:47:54.597Z,16.80
2023-02-19T16:50:24.819Z,15.15
2023-02-19T16:52:54.349Z,17.20
2023-02-19T16:55:22.251Z,18.58
2023-02-19T16:57:49.981Z,17.40
2023-02-19T17:00:22.209Z,13.98
2023-02-19T17:02:51.955Z,14.95
2023-02-19T17:05:20.732Z,19.77
2023-02-19T17:07:48.482Z,15.25
2023-02-19T17:10:22.944Z,18.13
2023-02-19T17:12:50.891Z,16.10
2023-02-19T17:15:18.382Z,18.48
2023-02-19T17:17:45.572Z,14.88
2023-02-19T17:20:18.269Z,19.25
2023-02-19T17:22:45.365Z,19.88
2023-02-19T17:25:12.464Z,17.58
2023-02-19T17:27:41.091Z,15.88
2023-02-19T17:30:16.527Z,19.63
2023-02-19T17:32:43.634Z,18.42
2023-02-19T17:35:10.828Z,18.80
2023-02-19T17:37:37.942Z,18.45
2023-02-19T17:40:31.741Z,21.02
2023-02-19T17:42:59.616Z,20.92
2023-02-19T17:45:26.792Z,25.63
2023-02-19T17:47:53.916Z,21.30
2023-02-19T17:50:24.567Z,23.83
2023-02-19T17:52:51.891Z,24.88
2023-02-19T17:55:19.594Z,26.15
2023-02-19T17:57:51.046Z,24.02
2023-02-19T18:00:21.373Z,24.77
2023-02-19T18:02:48.560Z,23.48
2023-02-19T18:05:15.805Z,29.48
2023-02-19T18:07:43.552Z,32.88
2023-02-19T18:10:11.263Z,28.60
2023-02-19T18:12:39.648Z,26.00
2023-02-19T18:15:08.291Z,27.70
2023-02-19T18:17:35.612Z,28.23
2023-02-19T18:20:04.613Z,23.15
2023-02-19T18:22:32.306Z,28.70
2023-02-19T18:24:59.568Z,23.38
2023-02-19T18:27:26.727Z,26.73
2023-02-19T18:29:55.453Z,27.65
2023-02-19T18:32:25.044Z,24.48
2023-02-19T18:34:55.193Z,25.60
2023-02-19T18:37:24.472Z,24.58
2023-02-19T18:39:52.281Z,24.75
2023-02-19T18:42:20.968Z,33.05
2023-02-19T18:44:49.017Z,26.90
2023-02-19T18:47:17.592Z,28.17
2023-02-19T18:49:53.224Z,33.90
2023-02-19T18:52:23.831Z,29.50
2023-02-19T18:54:52.191Z,31.13
2023-02-19T18:57:21.326Z,32.17
2023-02-19T18:59:49.024Z,29.83
2023-02-19T19:02:16.380Z,34.47
2023-02-19T19:04:48.154Z,29.42
2023-02-19T19:07:15.368Z,30.80
2023-02-19T19:09:42.460Z,31.27
2023-02-19T19:12:09.618Z,34.42
2023-02-19T19:14:37.392Z,33.50
2023-02-19T19:17:04.759Z,39.47
2023-02-19T19:19:31.922Z,35.50
2023-02-19T19:21:58.993Z,42.95
2023-02-19T19:24:26.195Z,34.20
2023-02-19T19:26:53.492Z,34.90
2023-02-19T19:29:22.077Z,33.53
2023-02-19T19:31:49.767Z,34.22
2023-02-19T19:34:17.925Z,40.03
2023-02-19T19:36:45.575Z,35.38
2023-02-19T19:39:13.437Z,35.95
2023-02-19T19:41:40.507Z,32.03
2023-02-19T19:44:08.705Z,40.78
2023-02-19T19:46:43.055Z,38.15
2023-02-19T19:49:10.173Z,49.40
2023-02-19T19:51:37.376Z,40.95
2023-02-19T19:54:04.960Z,47.00
2023-02-19T19:56:32.094Z,47.00
2023-02-19T19:58:59.202Z,44.58
2023-02-19T20:01:26.282Z,44.13
2023-02-19T20:03:53.372Z,43.60
2023-02-19T20:06:28.843Z,49.88
2023-02-19T20:08:56.677Z,43.72
2023-02-19T20:11:23.982Z,47.05
2023-02-19T20:13:51.486Z,48.97
2023-02-19T20:16:24.288Z,44.72
2023-02-19T20:18:51.363Z,46.15
2023-02-19T20:21:18.602Z,47.95
2023-02-19T20:23:45.899Z,49.42
2023-02-19T20:26:13.032Z,52.95
2023-02-19T20:28:45.046Z,46.70
2023-02-19T20:31:12.590Z,50.00
2023-02-19T20:33:39.890Z,47.33
2023-02-19T20:36:07.621Z,60.92
2023-02-19T20:38:34.686Z,49.13
2023-02-19T20:41:02.567Z,45.25
2023-02-19T20:43:29.665Z,48.92
2023-02-19T20:45:56.730Z,45.22
2023-02-19T20:48:23.850Z,48.22
2023-02-19T20:50:50.920Z,46.60
2023-02-19T20:53:17.994Z,54.00
2023-02-19T20:55:45.081Z,63.20
2023-02-19T20:58:12.201Z,81.72
2023-02-19T21:00:39.331Z,63.90
2023-02-19T21:03:08.969Z,56.35
2023-02-19T21:05:37.026Z,67.32
2023-02-19T21:08:04.908Z,69.50
2023-02-19T21:10:31.982Z,59.03
2023-02-19T21:12:59.069Z,59.13
2023-02-19T21:15:26.165Z,63.20
2023-02-19T21:17:53.257Z,61.80
2023-02-19T21:20:20.888Z,65.63
2023-02-19T21:22:47.976Z,64.38
2023-02-19T21:25:15.110Z,61.42
2023-02-19T21:27:42.201Z,65.15
2023-02-19T21:30:09.544Z,67.38
2023-02-19T21:32:36.712Z,67.43
2023-02-19T21:35:04.060Z,64.65
2023-02-19T21:37:31.316Z,64.07
2023-02-19T21:40:00.341Z,75.97
2023-02-19T21:42:27.600Z,72.13
2023-02-19T21:44:54.786Z,67.32
2023-02-19T21:47:21.870Z,62.63
2023-02-19T21:49:48.980Z,78.63
2023-02-19T21:52:16.139Z,74.15
2023-02-19T21:54:43.228Z,73.93
2023-02-19T21:57:10.406Z,71.53
2023-02-19T21:59:37.552Z,54.15
2023-02-19T22:02:04.674Z,66.15
2023-02-19T22:04:31.759Z,64.55
2023-02-19T22:06:58.874Z,65.15
2023-02-19T22:09:26.013Z,71.00
2023-02-19T22:11:53.113Z,64.38
2023-02-19T22:14:20.324Z,62.08
2023-02-19T22:16:47.504Z,71.43
2023-02-19T22:19:14.678Z,67.18
2023-02-19T22:21:44.330Z,75.50
2023-02-19T22:24:21.306Z,70.35
2023-02-19T22:26:50.516Z,75.60
2023-02-19T22:29:18.041Z,71.35
2023-02-19T22:31:45.262Z,78.43
2023-02-19T22:34:12.571Z,68.50
2023-02-19T22:36:40.376Z,72.93
2023-02-19T22:39:15.102Z,68.78
2023-02-19T22:41:43.306Z,79.13
2023-02-19T22:44:11.208Z,69.00
2023-02-19T22:46:38.283Z,76.45
2023-02-19T22:49:06.575Z,73.53
2023-02-19T22:51:35.540Z,77.80
2023-02-19T22:54:02.697Z,76.72
2023-02-19T22:56:29.905Z,85.13
2023-02-19T22:58:58.740Z,81.13
2023-02-19T23:01:25.892Z,83.38
2023-02-19T23:03:55.423Z,81.38
2023-02-19T23:06:30.812Z,79.07
2023-02-19T23:09:01.868Z,79.75
2023-02-19T23:11:32.376Z,84.13
2023-02-19T23:13:59.530Z,84.70
2023-02-19T23:16:27.310Z,85.78
2023-02-19T23:18:55.262Z,83.30
2023-02-19T23:21:23.098Z,84.38
2023-02-19T23:23:50.600Z,78.38
2023-02-19T23:26:18.298Z,73.47
2023-02-19T23:28:46.430Z,80.22
2023-02-19T23:31:14.366Z,68.85
2023-02-19T23:33:42.392Z,73.13
2023-02-19T23:36:10.690Z,76.43
2023-02-19T23:38:38.076Z,79.32
2023-02-19T23:41:10.551Z,82.75
2023-02-19T23:43:38.049Z,79.70
2023-02-19T23:46:05.636Z,80.57
2023-02-19T23:48:32.938Z,79.88
2023-02-19T23:51:00.276Z,88.68
2023-02-19T23:53:27.427Z,88.93
2023-02-19T23:55:54.846Z,92.07
2023-02-19T23:58:21.917Z,86.18
